Terminal Aerodrome Forecast
Issued by NWS Northern Indiana

Home | Current Version | Previous Version | Graphics & Text | Print | Product List | Glossary On
Versions: 1 2 3 4 5 6 7 8 9 10 11 12 13 14
000
FTUS43 KIWX 271100
TAFFWA
TAF
KFWA 271129Z 2712/2812 30006KT P6SM OVC050
     FM271600 29013G19KT P6SM -SHSN BKN035
     FM272200 30011KT P6SM BKN040=

USA.gov is the U.S. government's official web portal to all federal, state and local government web resources and services.